Time;durP1;ratioP1;P1;durP2;ratioP2;P2;SDS_P1;SDS_P2;PMS_P1;PMS_P2;Temp;Humidity;BMP_temperature;BMP_pressure;BME280_temperature;BME280_humidity;BME280_pressure;Samples;Min_cycle;Max_cycle;Signal;HPM_P1;HPM_P2
2022/09/12 00:02:12;;;;;;;3.07;2.77;;;13.80;99.90;;;;;;5031767;28;20463;-67
2022/09/12 00:04:37;;;;;;;6.33;2.60;;;13.70;99.90;;;;;;5032307;28;20175;-67
2022/09/12 00:07:03;;;;;;;3.30;2.77;;;13.70;99.90;;;;;;5031961;28;20728;-68
2022/09/12 00:09:28;;;;;;;3.87;2.87;;;13.60;99.90;;;;;;5032013;28;20164;-68
2022/09/12 00:11:54;;;;;;;3.00;2.60;;;13.60;99.90;;;;;;5031990;28;20242;-68
2022/09/12 00:14:19;;;;;;;2.60;2.40;;;13.60;99.90;;;;;;5031966;28;20210;-67
2022/09/12 00:16:45;;;;;;;3.20;2.87;;;13.60;99.90;;;;;;5031653;28;20169;-67
2022/09/12 00:19:11;;;;;;;4.23;2.40;;;13.50;99.90;;;;;;5031779;28;20578;-68
2022/09/12 00:21:38;;;;;;;2.43;2.10;;;13.50;99.90;;;;;;5031579;28;20223;-67
2022/09/12 00:24:05;;;;;;;3.30;3.00;;;13.40;99.90;;;;;;5013992;28;20454;-67
2022/09/12 00:26:31;;;;;;;2.90;2.60;;;13.40;99.90;;;;;;5033954;28;20755;-67
2022/09/12 00:28:56;;;;;;;2.93;2.70;;;13.40;99.90;;;;;;5038217;28;20495;-67
2022/09/12 00:31:23;;;;;;;4.13;2.57;;;13.40;99.90;;;;;;5038203;28;20410;-67
2022/09/12 00:33:49;;;;;;;2.50;2.30;;;13.30;99.90;;;;;;5038241;28;20199;-67
2022/09/12 00:36:20;;;;;;;2.97;2.77;;;13.30;99.90;;;;;;5037856;28;20442;-67
2022/09/12 00:38:47;;;;;;;2.80;2.50;;;13.30;99.90;;;;;;5037918;28;20191;-67
2022/09/12 00:41:18;;;;;;;3.37;2.60;;;13.20;99.90;;;;;;5038176;28;20419;-67
2022/09/12 00:43:47;;;;;;;3.23;2.93;;;13.20;99.90;;;;;;5038085;28;20453;-67
2022/09/12 00:46:33;;;;;;;4.80;3.47;;;13.10;99.90;;;;;;5037825;28;20475;-67
2022/09/12 00:49:16;;;;;;;4.37;2.77;;;13.10;99.90;;;;;;5038056;28;20904;-67
2022/09/12 00:51:47;;;;;;;3.50;3.20;;;13.00;99.90;;;;;;5038115;28;20409;-67
2022/09/12 00:54:17;;;;;;;4.20;3.37;;;13.10;99.90;;;;;;5037973;28;20536;-68
2022/09/12 00:56:44;;;;;;;5.77;3.50;;;13.00;99.90;;;;;;5037732;28;20436;-67
2022/09/12 00:59:17;;;;;;;4.20;3.33;;;13.00;99.90;;;;;;5037889;28;20497;-67
2022/09/12 01:01:45;;;;;;;3.50;2.70;;;12.90;99.90;;;;;;5037763;28;20410;-67
2022/09/12 01:04:12;;;;;;;2.90;2.70;;;12.90;99.90;;;;;;5037850;28;20433;-69
2022/09/12 01:06:42;;;;;;;3.47;3.17;;;12.90;99.90;;;;;;5037754;28;20785;-67
2022/09/12 01:09:12;;;;;;;3.93;3.20;;;12.90;99.90;;;;;;5037898;28;20429;-67
2022/09/12 01:11:39;;;;;;;10.00;3.50;;;12.80;99.90;;;;;;5037726;28;20444;-67
2022/09/12 01:14:05;;;;;;;4.37;3.40;;;12.90;99.90;;;;;;5038015;28;20417;-66
2022/09/12 01:16:33;;;;;;;3.47;3.17;;;12.80;99.90;;;;;;5037705;28;20414;-67
2022/09/12 01:19:24;;;;;;;4.00;3.10;;;12.80;99.90;;;;;;5037771;28;20438;-67
2022/09/12 01:22:14;;;;;;;3.50;3.20;;;12.90;99.90;;;;;;5026905;28;20426;-67
2022/09/12 01:24:51;;;;;;;3.33;3.03;;;12.80;99.90;;;;;;5037617;28;20391;-67
2022/09/12 01:27:42;;;;;;;4.00;3.20;;;12.90;99.90;;;;;;5037568;28;20449;-67
2022/09/12 01:30:40;;;;;;;4.53;2.60;;;12.80;99.90;;;;;;5037475;28;20840;-67
2022/09/12 01:33:49;;;;;;;3.40;3.10;;;12.70;99.90;;;;;;5037642;28;20402;-67
2022/09/12 01:36:39;;;;;;;3.67;3.37;;;12.70;99.90;;;;;;5037485;28;20440;-66
2022/09/12 01:39:12;;;;;;;5.47;3.77;;;12.60;99.90;;;;;;5034458;28;20825;-69
2022/09/12 01:42:19;;;;;;;5.00;4.30;;;12.60;99.90;;;;;;5034557;28;20395;-68
2022/09/12 01:45:13;;;;;;;4.27;3.60;;;12.60;99.90;;;;;;5034263;28;20402;-67
2022/09/12 01:47:43;;;;;;;4.37;3.60;;;12.60;99.90;;;;;;5034542;28;20419;-69
2022/09/12 01:50:27;;;;;;;4.33;3.50;;;12.60;99.90;;;;;;5034691;28;20410;-68
2022/09/12 01:53:19;;;;;;;4.20;3.73;;;12.50;99.90;;;;;;5033710;28;20394;-67
2022/09/12 01:55:57;;;;;;;3.63;3.33;;;12.50;99.90;;;;;;5030060;28;20457;-67
2022/09/12 01:58:33;;;;;;;4.43;3.60;;;12.50;99.90;;;;;;5034690;28;20466;-67
2022/09/12 02:01:06;;;;;;;3.37;2.80;;;12.40;99.90;;;;;;5034159;28;20544;-67
2022/09/12 02:03:46;;;;;;;3.57;3.20;;;12.40;99.90;;;;;;5034433;28;20458;-67
2022/09/12 02:06:21;;;;;;;4.30;3.20;;;12.40;99.90;;;;;;5033841;28;20406;-66
2022/09/12 02:08:57;;;;;;;4.80;3.80;;;12.40;99.90;;;;;;5033908;28;20413;-67
2022/09/12 02:11:23;;;;;;;3.07;2.80;;;12.40;99.90;;;;;;5033858;28;20453;-67
2022/09/12 02:14:11;;;;;;;3.77;3.40;;;12.40;99.90;;;;;;5033694;28;20820;-67
2022/09/12 02:16:45;;;;;;;5.33;4.27;;;12.30;99.90;;;;;;5033533;28;20206;-67
2022/09/12 02:19:19;;;;;;;3.47;3.03;;;12.30;99.90;;;;;;5033921;28;20404;-67
2022/09/12 02:21:51;;;;;;;5.00;3.20;;;12.30;99.90;;;;;;5033648;28;20693;-67
2022/09/12 02:24:18;;;;;;;3.37;3.07;;;12.30;99.90;;;;;;5033591;28;20768;-67
2022/09/12 02:26:49;;;;;;;3.93;3.53;;;12.40;99.90;;;;;;5033568;28;20769;-67
2022/09/12 02:29:15;;;;;;;4.23;3.83;;;12.30;99.90;;;;;;5033769;28;20464;-67
2022/09/12 02:31:48;;;;;;;4.00;3.60;;;12.30;99.90;;;;;;5033546;28;20406;-67
2022/09/12 02:34:41;;;;;;;4.90;4.37;;;12.30;99.90;;;;;;5033510;28;20422;-67
2022/09/12 02:37:11;;;;;;;4.40;3.60;;;12.30;99.90;;;;;;5033324;28;20406;-67
2022/09/12 02:39:37;;;;;;;4.70;3.83;;;12.20;99.90;;;;;;5033517;28;20395;-67
2022/09/12 02:42:04;;;;;;;3.40;3.10;;;12.20;99.90;;;;;;5033401;28;20515;-67
2022/09/12 02:44:31;;;;;;;3.90;3.50;;;12.20;99.90;;;;;;5033217;28;20167;-67
2022/09/12 02:47:05;;;;;;;4.70;3.27;;;12.20;99.90;;;;;;5033027;28;20526;-67
2022/09/12 02:49:31;;;;;;;3.10;2.77;;;12.30;99.90;;;;;;5033144;28;20402;-67
2022/09/12 02:51:57;;;;;;;6.50;4.10;;;12.30;99.90;;;;;;5033184;28;20402;-67
2022/09/12 02:54:24;;;;;;;5.00;4.60;;;12.30;99.90;;;;;;5033100;28;20642;-67
2022/09/12 02:56:50;;;;;;;4.50;3.70;;;12.20;99.90;;;;;;5032814;28;20521;-67
2022/09/12 02:59:19;;;;;;;5.63;4.40;;;12.10;99.90;;;;;;5033127;28;20481;-66
2022/09/12 03:02:08;;;;;;;6.17;4.33;;;12.10;99.90;;;;;;5033048;28;20229;-68
2022/09/12 03:04:45;;;;;;;6.50;4.83;;;12.10;99.90;;;;;;5033409;28;20395;-68
2022/09/12 03:07:26;;;;;;;5.20;4.00;;;12.20;99.90;;;;;;5033191;28;20673;-67
2022/09/12 03:09:51;;;;;;;4.17;3.77;;;12.10;99.90;;;;;;5032824;28;20939;-67
2022/09/12 03:12:17;;;;;;;6.73;4.57;;;12.10;99.90;;;;;;5032899;28;20407;-67
2022/09/12 03:14:48;;;;;;;5.60;4.93;;;12.10;99.90;;;;;;5032620;28;20168;-67
2022/09/12 03:17:34;;;;;;;8.83;4.20;;;12.20;99.90;;;;;;5032654;28;20270;-68
2022/09/12 03:20:10;;;;;;;4.53;4.10;;;12.10;99.90;;;;;;5032629;28;20418;-67
2022/09/12 03:22:51;;;;;;;4.93;4.47;;;12.00;99.90;;;;;;5032469;28;20923;-67
2022/09/12 03:25:35;;;;;;;7.70;4.83;;;12.00;99.90;;;;;;5032466;28;20397;-67
2022/09/12 03:28:10;;;;;;;5.53;5.03;;;12.00;99.90;;;;;;5032325;28;20422;-67
2022/09/12 03:30:44;;;;;;;4.77;4.37;;;12.00;99.90;;;;;;5032197;28;20406;-68
2022/09/12 03:33:15;;;;;;;5.90;5.13;;;12.00;99.90;;;;;;5032383;28;20417;-67
2022/09/12 03:35:42;;;;;;;9.47;4.53;;;12.10;99.90;;;;;;5032110;28;20411;-67
2022/09/12 03:38:08;;;;;;;6.40;5.23;;;12.20;99.90;;;;;;5032279;28;20437;-67
2022/09/12 03:40:35;;;;;;;5.07;4.67;;;12.10;99.90;;;;;;5032274;28;20399;-67
2022/09/12 03:43:01;;;;;;;4.73;4.20;;;12.10;99.90;;;;;;5031992;28;20476;-67
2022/09/12 03:45:27;;;;;;;5.00;4.50;;;12.10;99.90;;;;;;5031794;28;20394;-68
2022/09/12 03:47:52;;;;;;;5.23;4.13;;;12.00;99.90;;;;;;5032073;28;20947;-67
2022/09/12 03:50:18;;;;;;;5.17;4.53;;;12.00;99.90;;;;;;5032255;28;20658;-67
2022/09/12 03:52:43;;;;;;;6.67;5.00;;;12.00;99.90;;;;;;5031945;28;20163;-67
2022/09/12 03:55:09;;;;;;;4.90;4.23;;;12.00;99.90;;;;;;5031949;28;20167;-67
2022/09/12 03:57:35;;;;;;;6.47;4.67;;;11.90;99.90;;;;;;5031798;28;20208;-66
2022/09/12 04:00:01;;;;;;;6.23;4.97;;;12.00;99.90;;;;;;5031715;28;20679;-67
2022/09/12 04:02:27;;;;;;;6.17;4.33;;;12.00;99.90;;;;;;5031298;28;20553;-68
2022/09/12 04:04:53;;;;;;;6.30;5.13;;;12.00;99.90;;;;;;5031729;28;20251;-67
2022/09/12 04:07:19;;;;;;;5.53;4.27;;;11.90;99.90;;;;;;5031779;28;20513;-67
2022/09/12 04:09:44;;;;;;;6.03;4.87;;;11.90;99.90;;;;;;5031870;28;20164;-67
2022/09/12 04:12:10;;;;;;;5.50;4.60;;;11.80;99.90;;;;;;5031834;28;20163;-67
2022/09/12 04:14:36;;;;;;;6.83;5.17;;;11.80;99.90;;;;;;5031441;28;20206;-67
2022/09/12 04:17:01;;;;;;;5.97;5.03;;;11.80;99.90;;;;;;5031679;28;20282;-67
2022/09/12 04:19:27;;;;;;;12.33;5.77;;;11.80;99.90;;;;;;5031653;28;20175;-67
2022/09/12 04:21:53;;;;;;;6.77;4.57;;;11.80;99.90;;;;;;5031731;28;20160;-68
2022/09/12 04:24:18;;;;;;;8.37;5.70;;;11.80;99.90;;;;;;5031707;28;20195;-68
2022/09/12 04:26:44;;;;;;;6.37;5.50;;;11.80;99.90;;;;;;5031471;28;20521;-67
2022/09/12 04:29:11;;;;;;;9.67;5.80;;;11.90;99.90;;;;;;5031593;28;20164;-67
2022/09/12 04:31:38;;;;;;;10.90;5.07;;;11.90;99.90;;;;;;5031572;28;20194;-67
2022/09/12 04:34:04;;;;;;;8.07;5.77;;;11.80;99.90;;;;;;5031689;28;20406;-67
2022/09/12 04:36:30;;;;;;;6.40;4.87;;;11.80;99.90;;;;;;5031368;28;20908;-68
2022/09/12 04:38:56;;;;;;;6.13;5.17;;;11.80;99.90;;;;;;5031340;28;20492;-67
2022/09/12 04:41:25;;;;;;;5.60;5.00;;;11.80;99.90;;;;;;5031575;28;20415;-67
2022/09/12 04:43:54;;;;;;;5.97;4.00;;;11.90;99.90;;;;;;5030830;28;20207;-67
2022/09/12 04:46:20;;;;;;;7.37;5.17;;;11.90;99.90;;;;;;5031109;28;20402;-67
2022/09/12 04:48:46;;;;;;;8.60;5.53;;;11.90;99.90;;;;;;5031464;28;20445;-67
2022/09/12 04:51:26;;;;;;;5.43;4.60;;;11.90;99.90;;;;;;5031416;28;20428;-68
2022/09/12 04:53:54;;;;;;;9.30;4.80;;;11.90;99.90;;;;;;5032199;28;20438;-66
2022/09/12 04:56:21;;;;;;;7.80;5.37;;;11.90;99.90;;;;;;5031057;28;20460;-66
2022/09/12 04:58:47;;;;;;;6.57;4.80;;;11.90;99.90;;;;;;5031035;28;20450;-66
2022/09/12 05:01:15;;;;;;;7.63;5.60;;;12.00;99.90;;;;;;5031446;28;20417;-68
2022/09/12 05:03:45;;;;;;;8.00;6.20;;;11.90;99.90;;;;;;5031862;28;20216;-68
2022/09/12 05:06:13;;;;;;;5.90;4.80;;;12.00;99.90;;;;;;5031791;28;20406;-68
2022/09/12 05:08:39;;;;;;;6.10;5.50;;;12.00;99.90;;;;;;5031459;28;20564;-67
2022/09/12 05:11:11;;;;;;;8.80;5.50;;;12.10;99.90;;;;;;5031311;28;20436;-67
2022/09/12 05:13:37;;;;;;;7.20;5.60;;;12.10;99.90;;;;;;5034023;28;20402;-67
2022/09/12 05:16:04;;;;;;;6.77;4.90;;;12.20;99.90;;;;;;5035620;28;20406;-67
2022/09/12 05:18:35;;;;;;;6.03;5.43;;;12.20;99.90;;;;;;5035283;28;20462;-67
2022/09/12 05:21:02;;;;;;;7.50;5.70;;;12.20;99.90;;;;;;5035049;28;20441;-67
2022/09/12 05:23:29;;;;;;;8.87;6.83;;;12.20;99.90;;;;;;5034967;28;20449;-67
2022/09/12 05:25:56;;;;;;;10.13;5.40;;;12.20;99.90;;;;;;5034787;28;20452;-67
2022/09/12 05:28:23;;;;;;;7.70;6.90;;;12.30;99.90;;;;;;5034952;28;20426;-67
2022/09/12 05:31:03;;;;;;;8.23;6.23;;;12.30;99.90;;;;;;5035134;28;20452;-67
2022/09/12 05:33:29;;;;;;;7.97;5.97;;;12.30;99.90;;;;;;5035236;28;20421;-67
2022/09/12 05:35:54;;;;;;;9.30;6.43;;;12.40;99.90;;;;;;5034568;28;20415;-67
2022/09/12 05:38:20;;;;;;;8.87;7.17;;;12.50;99.90;;;;;;5034827;28;20806;-67
2022/09/12 05:40:45;;;;;;;9.17;7.10;;;12.50;99.90;;;;;;5034850;28;20561;-67
2022/09/12 05:43:11;;;;;;;7.83;6.70;;;12.70;99.90;;;;;;5034478;28;20205;-67
2022/09/12 05:45:37;;;;;;;10.00;6.87;;;13.00;99.90;;;;;;5034572;28;20164;-67
2022/09/12 05:48:03;;;;;;;7.17;6.07;;;13.60;99.90;;;;;;5034436;28;20286;-67
2022/09/12 05:50:28;;;;;;;5.50;3.87;;;14.20;99.90;;;;;;5034313;28;20538;-67
2022/09/12 05:52:55;;;;;;;6.33;3.93;;;14.50;99.90;;;;;;5034428;28;20443;-67
2022/09/12 05:55:22;;;;;;;3.97;3.67;;;14.90;99.90;;;;;;5034223;28;20182;-67
2022/09/12 05:57:47;;;;;;;4.27;3.50;;;15.50;99.90;;;;;;5034260;28;20451;-67
2022/09/12 06:00:14;;;;;;;3.40;3.10;;;15.70;99.90;;;;;;5034311;28;20423;-67
2022/09/12 06:02:40;;;;;;;4.63;3.53;;;16.20;99.90;;;;;;5034155;28;20193;-67
2022/09/12 06:05:06;;;;;;;7.27;3.63;;;16.20;99.90;;;;;;5033861;28;20763;-68
2022/09/12 06:07:31;;;;;;;4.10;2.63;;;16.40;99.90;;;;;;5034190;28;20527;-67
2022/09/12 06:10:00;;;;;;;4.13;3.40;;;16.90;99.90;;;;;;5034354;28;20423;-67
2022/09/12 06:12:28;;;;;;;4.77;4.10;;;17.80;99.90;;;;;;5034517;28;20167;-67
2022/09/12 06:14:54;;;;;;;4.30;3.13;;;18.50;99.90;;;;;;5033960;28;20410;-67
2022/09/12 06:17:21;;;;;;;4.37;3.73;;;18.40;99.90;;;;;;5034033;28;20440;-67
2022/09/12 06:19:46;;;;;;;3.60;3.00;;;19.20;99.90;;;;;;5033898;28;20185;-67
2022/09/12 06:22:12;;;;;;;5.57;3.57;;;19.40;99.90;;;;;;5033973;28;20445;-67
2022/09/12 06:24:38;;;;;;;4.17;3.37;;;19.30;99.90;;;;;;5033440;28;20237;-67
2022/09/12 06:27:04;;;;;;;4.50;3.30;;;19.90;99.90;;;;;;5033706;28;20422;-67
2022/09/12 06:29:31;;;;;;;3.53;3.23;;;19.70;99.90;;;;;;5033816;28;20176;-67
2022/09/12 06:31:57;;;;;;;3.20;2.90;;;19.90;99.90;;;;;;5033698;28;20254;-67
2022/09/12 06:34:22;;;;;;;4.70;3.20;;;20.00;99.90;;;;;;5033685;28;20838;-66
2022/09/12 06:36:49;;;;;;;4.10;3.20;;;19.90;99.90;;;;;;5033606;28;20222;-66
2022/09/12 06:39:20;;;;;;;3.40;3.10;;;19.70;99.90;;;;;;5033535;28;20593;-66
2022/09/12 06:41:47;;;;;;;3.27;2.97;;;20.20;99.90;;;;;;5033281;28;20470;-66
2022/09/12 06:44:16;;;;;;;3.47;2.83;;;20.70;99.90;;;;;;5032901;28;20871;-67
2022/09/12 06:46:41;;;;;;;3.90;3.60;;;21.00;99.90;;;;;;5032611;28;20446;-67
2022/09/12 06:49:07;;;;;;;4.00;3.60;;;20.80;99.90;;;;;;5033005;28;20894;-67
2022/09/12 06:51:35;;;;;;;3.20;2.60;;;21.60;99.90;;;;;;5033057;28;20200;-67
2022/09/12 06:54:01;;;;;;;4.20;3.37;;;21.80;99.90;;;;;;5033092;28;20176;-67
2022/09/12 06:56:27;;;;;;;2.60;2.40;;;21.90;99.90;;;;;;5032884;28;20422;-67
2022/09/12 06:58:55;;;;;;;3.53;3.23;;;21.80;99.90;;;;;;5032763;28;20449;-68
2022/09/12 07:01:22;;;;;;;3.10;2.80;;;21.60;99.90;;;;;;5033336;28;20182;-67
2022/09/12 07:03:53;;;;;;;3.10;2.80;;;21.90;99.90;;;;;;5032984;28;20453;-67
2022/09/12 07:06:23;;;;;;;5.47;2.80;;;22.30;99.90;;;;;;5032703;28;20905;-67
2022/09/12 07:08:49;;;;;;;3.60;3.30;;;22.90;99.90;;;;;;5032594;28;20560;-67
2022/09/12 07:11:16;;;;;;;3.80;3.50;;;22.10;99.90;;;;;;5032531;28;20840;-67
2022/09/12 07:13:44;;;;;;;4.30;3.90;;;21.10;99.90;;;;;;5032865;28;20909;-67
2022/09/12 07:16:10;;;;;;;4.40;4.00;;;21.20;99.90;;;;;;5032264;28;20410;-66
2022/09/12 07:18:37;;;;;;;4.23;3.67;;;21.60;99.90;;;;;;5032562;28;20580;-67
2022/09/12 07:21:05;;;;;;;5.37;3.90;;;22.30;99.90;;;;;;5032536;28;20916;-68
2022/09/12 07:23:30;;;;;;;4.17;3.73;;;22.30;99.90;;;;;;5032275;28;20446;-68
2022/09/12 07:25:58;;;;;;;4.90;3.83;;;23.60;99.90;;;;;;5032643;28;20962;-68
2022/09/12 07:28:29;;;;;;;4.50;3.80;;;22.60;99.90;;;;;;5032507;28;20728;-68
2022/09/12 07:30:54;;;;;;;5.20;4.33;;;22.40;99.90;;;;;;5032712;28;20505;-66
2022/09/12 07:33:22;;;;;;;4.00;3.70;;;23.30;99.90;;;;;;5032481;28;20497;-67
2022/09/12 07:35:48;;;;;;;5.23;3.97;;;23.50;99.90;;;;;;5031433;28;20638;-68
2022/09/12 07:38:14;;;;;;;5.10;4.07;;;22.00;99.90;;;;;;5032360;28;20930;-67
2022/09/12 07:40:39;;;;;;;4.13;3.73;;;22.80;99.90;;;;;;5032533;28;20433;-67
2022/09/12 07:43:05;;;;;;;4.50;3.63;;;23.50;99.90;;;;;;5032287;28;20261;-68
2022/09/12 07:45:31;;;;;;;8.70;3.73;;;22.30;99.90;;;;;;5032348;28;20175;-68
2022/09/12 07:47:56;;;;;;;4.17;3.67;;;24.00;99.90;;;;;;5032080;28;20187;-67
2022/09/12 07:50:22;;;;;;;4.70;3.47;;;22.60;99.90;;;;;;5032186;28;20173;-67
2022/09/12 07:52:47;;;;;;;4.97;4.00;;;23.80;99.90;;;;;;5032117;28;20168;-68
2022/09/12 07:55:13;;;;;;;5.60;3.50;;;23.50;99.90;;;;;;5032108;28;20168;-67
2022/09/12 07:57:39;;;;;;;3.20;2.90;;;23.30;99.90;;;;;;5032361;28;20231;-68
2022/09/12 08:00:07;;;;;;;3.03;2.73;;;22.70;99.90;;;;;;5072891;23;20531;-74
2022/09/12 08:02:33;;;;;;;3.33;2.97;;;22.50;99.90;;;;;;5055624;28;20186;-75
2022/09/12 08:04:59;;;;;;;2.33;2.17;;;23.50;99.90;;;;;;5060805;28;20449;-75
2022/09/12 08:07:25;;;;;;;2.90;2.60;;;23.70;99.90;;;;;;5062996;28;20163;-75
2022/09/12 08:09:52;;;;;;;3.40;2.70;;;24.00;99.90;;;;;;5062866;28;20189;-75
2022/09/12 08:12:19;;;;;;;2.10;1.90;;;23.90;99.90;;;;;;5062379;28;20414;-74
2022/09/12 08:14:45;;;;;;;4.33;3.00;;;22.80;99.90;;;;;;5063340;28;20906;-75
2022/09/12 08:17:10;;;;;;;2.90;2.07;;;22.90;99.90;;;;;;5062005;28;20429;-74
2022/09/12 08:19:37;;;;;;;2.20;2.00;;;23.30;99.90;;;;;;5061397;28;20198;-74
2022/09/12 08:22:03;;;;;;;2.30;1.70;;;23.50;99.90;;;;;;5059603;28;20197;-74
2022/09/12 08:24:28;;;;;;;3.30;2.70;;;23.10;99.90;;;;;;5060181;28;20405;-75
2022/09/12 08:26:54;;;;;;;2.20;2.00;;;23.60;99.90;;;;;;5059214;28;20208;-75
2022/09/12 08:29:20;;;;;;;3.40;2.80;;;23.60;99.90;;;;;;5059061;28;20661;-73
2022/09/12 08:31:46;;;;;;;2.57;1.93;;;23.70;99.90;;;;;;5058392;28;20159;-74
2022/09/12 08:34:11;;;;;;;1.80;1.70;;;22.80;99.90;;;;;;5062321;28;20253;-74
2022/09/12 08:36:37;;;;;;;2.17;1.97;;;22.30;99.90;;;;;;5062208;28;20174;-75
2022/09/12 08:39:05;;;;;;;2.27;1.70;;;22.20;99.90;;;;;;5062934;28;20628;-75
2022/09/12 08:41:40;;;;;;;2.40;1.73;;;21.80;99.90;;;;;;5063042;28;20202;-75
2022/09/12 08:44:14;;;;;;;2.63;1.73;;;22.50;99.90;;;;;;5063034;28;20463;-75
2022/09/12 08:47:20;;;;;;;1.73;1.63;;;22.10;99.90;;;;;;5061880;28;21044;-74
2022/09/12 08:50:03;;;;;;;1.50;1.30;;;22.10;99.90;;;;;;5067992;28;20440;-75
2022/09/12 08:53:01;;;;;;;1.63;1.30;;;22.80;99.90;;;;;;5068851;28;20421;-74
2022/09/12 08:55:43;;;;;;;1.97;1.77;;;23.70;99.90;;;;;;5075607;28;20401;-75
2022/09/12 08:58:19;;;;;;;1.90;1.70;;;23.20;99.90;;;;;;5069646;28;20413;-74
2022/09/12 09:01:15;;;;;;;2.43;1.60;;;24.20;99.90;;;;;;5065297;28;20435;-74
2022/09/12 09:04:19;;;;;;;1.70;1.60;;;25.10;99.90;;;;;;5063102;28;20481;-74
2022/09/12 09:07:19;;;;;;;2.17;1.80;;;23.80;99.90;;;;;;5061951;28;20455;-74
2022/09/12 09:10:09;;;;;;;2.73;1.40;;;21.30;99.90;;;;;;5062137;28;20416;-74
2022/09/12 09:14:46;;;;;;;1.40;1.30;;;21.70;99.90;;;;;;5064220;28;20382;-75
2022/09/12 09:16:29;;;;;;;1.40;1.30;;;22.60;99.90;;;;;;5020018;28;20413;-74
2022/09/12 09:18:58;;;;;;;1.60;1.40;;;22.30;99.90;;;;;;5060686;28;20486;-75
2022/09/12 09:21:49;;;;;;;1.40;1.20;;;22.70;99.90;;;;;;5059603;28;20509;-75
2022/09/12 09:24:18;;;;;;;1.30;1.17;;;20.70;99.90;;;;;;5060682;28;20962;-75
2022/09/12 09:27:08;;;;;;;2.03;1.30;;;21.00;99.90;;;;;;5059690;28;20416;-74
2022/09/12 09:29:43;;;;;;;1.57;1.20;;;21.70;99.90;;;;;;5059822;28;20456;-74
2022/09/12 09:32:17;;;;;;;1.50;1.10;;;21.60;99.90;;;;;;5059901;28;20435;-74
2022/09/12 09:34:42;;;;;;;3.90;1.47;;;22.40;99.90;;;;;;5060408;28;20401;-74
2022/09/12 09:37:14;;;;;;;1.37;1.00;;;22.80;99.90;;;;;;5060033;28;20417;-74
2022/09/12 09:39:42;;;;;;;1.00;0.90;;;23.00;99.90;;;;;;5061815;28;20270;-74
2022/09/12 09:42:44;;;;;;;2.30;1.00;;;22.70;99.90;;;;;;5065001;28;20501;-74
2022/09/12 09:45:15;;;;;;;1.83;1.03;;;22.00;99.90;;;;;;5064477;28;20401;-75
2022/09/12 09:47:43;;;;;;;1.40;1.30;;;22.00;99.90;;;;;;5061935;28;20399;-75
2022/09/12 09:50:15;;;;;;;2.30;1.27;;;21.50;99.90;;;;;;5061013;28;20420;-74
2022/09/12 09:52:41;;;;;;;1.77;1.00;;;21.80;99.90;;;;;;5060269;28;20421;-74
2022/09/12 09:55:16;;;;;;;1.40;0.97;;;21.70;99.90;;;;;;5060493;28;20421;-74
2022/09/12 09:57:44;;;;;;;1.43;1.33;;;20.90;99.90;;;;;;5060345;28;20424;-74
2022/09/12 10:00:24;;;;;;;0.80;0.80;;;21.40;99.90;;;;;;5059728;28;20446;-74
2022/09/12 10:03:03;;;;;;;1.13;1.03;;;21.70;99.90;;;;;;5060343;28;20487;-73
2022/09/12 10:05:31;;;;;;;1.23;1.10;;;22.10;99.90;;;;;;5059266;28;20415;-74
2022/09/12 10:07:57;;;;;;;1.40;1.30;;;21.80;99.90;;;;;;5060998;28;20930;-74
2022/09/12 10:10:23;;;;;;;1.10;1.00;;;21.60;99.90;;;;;;5060367;28;20429;-74
2022/09/12 10:12:49;;;;;;;1.60;1.37;;;21.30;99.90;;;;;;5060446;28;20416;-73
2022/09/12 10:15:20;;;;;;;1.63;1.20;;;21.70;99.90;;;;;;5061119;28;20422;-73
2022/09/12 10:17:49;;;;;;;1.73;1.30;;;20.90;99.90;;;;;;5060740;28;20170;-74
2022/09/12 10:20:40;;;;;;;1.33;1.23;;;21.00;99.90;;;;;;5061601;28;20434;-74
2022/09/12 10:23:18;;;;;;;1.97;0.90;;;20.70;99.90;;;;;;5060894;28;20447;-74
2022/09/12 10:25:55;;;;;;;1.03;1.03;;;20.90;99.90;;;;;;5061884;28;20904;-74
2022/09/12 10:28:52;;;;;;;2.73;1.43;;;21.30;99.90;;;;;;5061862;28;20501;-75
2022/09/12 10:31:34;;;;;;;1.37;1.20;;;21.60;99.90;;;;;;5052907;28;20421;-74
2022/09/12 10:34:00;;;;;;;1.20;1.10;;;21.30;99.90;;;;;;5064039;28;20406;-75
2022/09/12 10:36:38;;;;;;;1.80;1.40;;;21.30;99.90;;;;;;5062707;28;20446;-75
2022/09/12 10:39:05;;;;;;;1.93;1.00;;;21.40;99.90;;;;;;5063046;28;20687;-75
2022/09/12 10:41:39;;;;;;;1.10;1.00;;;21.30;99.90;;;;;;5061324;28;20407;-75
2022/09/12 10:44:14;;;;;;;1.97;1.30;;;21.40;99.90;;;;;;5062522;28;20448;-74
2022/09/12 10:46:39;;;;;;;2.50;0.87;;;21.10;99.90;;;;;;5059224;28;20492;-74
2022/09/12 10:49:28;;;;;;;1.53;1.40;;;21.10;99.90;;;;;;5062329;28;20431;-74
2022/09/12 10:51:58;;;;;;;1.73;1.00;;;20.80;99.90;;;;;;5063071;28;20194;-74
2022/09/12 10:54:26;;;;;;;1.20;1.10;;;20.70;99.90;;;;;;5063796;28;20777;-74
2022/09/12 10:57:14;;;;;;;2.80;1.13;;;20.40;99.90;;;;;;5064147;28;20503;-73
2022/09/12 10:59:50;;;;;;;1.40;1.30;;;20.00;99.90;;;;;;5062887;28;20471;-73
2022/09/12 11:02:47;;;;;;;1.30;1.20;;;20.20;99.90;;;;;;5063180;28;20397;-74
2022/09/12 11:05:37;;;;;;;1.20;1.10;;;20.40;99.90;;;;;;5060235;28;20397;-74
2022/09/12 11:08:12;;;;;;;2.20;1.37;;;20.60;99.90;;;;;;5057948;28;20423;-74
2022/09/12 11:10:53;;;;;;;3.50;2.03;;;21.10;99.90;;;;;;5059188;28;20795;-74
2022/09/12 11:13:37;;;;;;;1.20;1.10;;;21.50;99.90;;;;;;5060114;28;20484;-74
2022/09/12 11:16:21;;;;;;;2.67;1.90;;;21.80;99.90;;;;;;5059375;28;21030;-74
2022/09/12 11:19:05;;;;;;;2.30;1.50;;;21.80;99.90;;;;;;5062362;28;20424;-74
2022/09/12 11:22:08;;;;;;;1.30;1.17;;;21.90;99.90;;;;;;5062040;28;20393;-74
2022/09/12 11:24:48;;;;;;;2.33;1.30;;;21.30;99.90;;;;;;5059778;28;20415;-74
2022/09/12 11:27:32;;;;;;;2.40;1.77;;;21.50;99.90;;;;;;5059939;28;20391;-74
2022/09/12 11:30:05;;;;;;;3.10;1.50;;;21.80;99.90;;;;;;5066794;28;20420;-74
2022/09/12 11:33:06;;;;;;;1.80;1.40;;;21.90;99.90;;;;;;5058810;28;20375;-73
2022/09/12 11:35:41;;;;;;;1.30;1.00;;;22.10;99.90;;;;;;5045010;28;20412;-74
2022/09/12 11:38:36;;;;;;;1.47;1.37;;;21.80;99.90;;;;;;5058579;28;20385;-74
2022/09/12 11:41:06;;;;;;;1.77;1.47;;;22.00;99.90;;;;;;5063023;28;20761;-75
2022/09/12 11:43:42;;;;;;;1.37;1.27;;;22.30;99.90;;;;;;5060883;28;20823;-74
2022/09/12 11:46:18;;;;;;;1.00;0.90;;;22.70;99.90;;;;;;5058980;28;20447;-74
2022/09/12 11:48:55;;;;;;;2.23;1.20;;;23.00;99.90;;;;;;5059918;28;20420;-74
2022/09/12 11:51:44;;;;;;;1.53;1.10;;;23.00;99.90;;;;;;5062825;28;20456;-74
2022/09/12 11:54:32;;;;;;;1.17;1.07;;;23.00;99.90;;;;;;5063089;28;20407;-73
2022/09/12 11:57:07;;;;;;;3.50;1.00;;;21.60;99.90;;;;;;5062035;28;20412;-74
2022/09/12 11:59:41;;;;;;;2.57;1.07;;;20.90;99.90;;;;;;5061975;28;20799;-73
2022/09/12 12:02:13;;;;;;;2.50;1.30;;;21.50;99.90;;;;;;5062989;28;20412;-73
2022/09/12 12:04:49;;;;;;;1.00;0.90;;;21.60;99.90;;;;;;5062473;28;20401;-73
2022/09/12 12:07:14;;;;;;;2.00;1.00;;;22.30;99.90;;;;;;5062317;28;20398;-74
2022/09/12 12:09:48;;;;;;;2.97;1.23;;;22.90;99.90;;;;;;5064600;28;20463;-74
2022/09/12 12:12:19;;;;;;;2.67;1.17;;;22.60;99.90;;;;;;5070396;28;20165;-74
2022/09/12 12:14:49;;;;;;;1.30;1.17;;;22.70;99.90;;;;;;5065985;28;20503;-74
2022/09/12 12:17:24;;;;;;;1.63;1.33;;;22.40;99.90;;;;;;5059546;28;20418;-73
2022/09/12 12:20:02;;;;;;;1.30;1.20;;;22.50;99.90;;;;;;5060461;28;20430;-75
2022/09/12 12:22:28;;;;;;;1.57;1.10;;;22.40;99.90;;;;;;5061674;28;20459;-74
2022/09/12 12:25:11;;;;;;;1.17;1.00;;;22.10;99.90;;;;;;5062895;28;20402;-74
2022/09/12 12:27:43;;;;;;;1.20;1.10;;;22.20;99.90;;;;;;5061579;28;20166;-74
2022/09/12 12:30:29;;;;;;;1.60;1.13;;;22.30;99.90;;;;;;5061363;28;20428;-74
2022/09/12 12:33:08;;;;;;;1.20;1.10;;;21.90;99.90;;;;;;5030418;28;20484;-74
2022/09/12 12:35:45;;;;;;;2.77;1.40;;;22.30;99.90;;;;;;5060630;28;20491;-74
2022/09/12 12:38:37;;;;;;;1.53;1.20;;;22.20;99.90;;;;;;5061935;28;20424;-75
2022/09/12 12:41:15;;;;;;;1.83;0.97;;;22.40;99.90;;;;;;5061591;28;20396;-75
2022/09/12 12:43:45;;;;;;;1.30;0.90;;;22.30;99.90;;;;;;5061080;28;20448;-74
2022/09/12 12:46:12;;;;;;;1.37;1.27;;;22.20;99.90;;;;;;5057253;28;20408;-74
2022/09/12 12:48:46;;;;;;;1.53;1.20;;;22.20;99.90;;;;;;5058080;28;20411;-74
2022/09/12 12:51:34;;;;;;;2.67;1.53;;;22.00;99.90;;;;;;5057616;28;20403;-74
2022/09/12 12:54:02;;;;;;;1.97;1.20;;;22.10;99.90;;;;;;5057206;28;20410;-74
2022/09/12 12:56:42;;;;;;;1.10;1.00;;;22.20;99.90;;;;;;5057071;28;20416;-74
2022/09/12 12:59:16;;;;;;;2.57;1.70;;;22.30;99.90;;;;;;5056194;28;20446;-74
2022/09/12 13:01:49;;;;;;;2.10;1.07;;;22.70;99.90;;;;;;5057466;28;20412;-74
2022/09/12 13:04:18;;;;;;;1.13;1.03;;;21.80;99.90;;;;;;5057684;28;20442;-73
2022/09/12 13:06:53;;;;;;;1.53;1.10;;;22.10;99.90;;;;;;5057988;28;20580;-74
2022/09/12 13:09:33;;;;;;;2.07;1.50;;;22.40;99.90;;;;;;5058036;28;20429;-74
2022/09/12 13:12:03;;;;;;;4.10;2.70;;;22.30;99.90;;;;;;5056859;28;20423;-74
2022/09/12 13:14:47;;;;;;;2.23;2.03;;;22.10;99.90;;;;;;5061669;28;20398;-75